createdAt,value
2022-09-06T00:00:15.567Z,0.90
2022-09-06T00:00:48.084Z,1.13
2022-09-06T00:01:22.296Z,1.40
2022-09-06T00:01:57.193Z,1.10
2022-09-06T00:02:31.822Z,1.10
2022-09-06T00:03:04.737Z,1.27
2022-09-06T00:03:37.119Z,1.23
2022-09-06T00:04:15.359Z,1.33
2022-09-06T00:04:49.003Z,1.20
2022-09-06T00:05:21.448Z,1.33
2022-09-06T00:05:53.752Z,0.90
2022-09-06T00:06:28.643Z,1.40
2022-09-06T00:07:03.698Z,1.37
2022-09-06T00:07:36.194Z,1.20
2022-09-06T00:08:11.105Z,1.67
2022-09-06T00:08:44.193Z,1.60
2022-09-06T00:09:16.515Z,1.30
2022-09-06T00:09:48.822Z,1.50
2022-09-06T00:10:23.787Z,1.47
2022-09-06T00:11:01.043Z,1.47
2022-09-06T00:11:33.709Z,1.50
2022-09-06T00:12:09.105Z,1.40
2022-09-06T00:12:41.536Z,1.43
2022-09-06T00:13:13.906Z,1.13
2022-09-06T00:13:49.542Z,1.00
2022-09-06T00:14:21.902Z,1.00
2022-09-06T00:14:54.546Z,1.30
2022-09-06T00:15:30.741Z,1.17
2022-09-06T00:16:08.333Z,1.07
2022-09-06T00:16:43.433Z,1.00
2022-09-06T00:17:15.963Z,0.93
2022-09-06T00:17:49.026Z,1.37
2022-09-06T00:18:21.927Z,1.00
2022-09-06T00:18:57.593Z,1.10
2022-09-06T00:19:29.888Z,0.93
2022-09-06T00:20:02.907Z,1.20
2022-09-06T00:20:41.459Z,1.03
2022-09-06T00:21:16.833Z,1.30
2022-09-06T00:21:49.137Z,1.20
2022-09-06T00:22:26.794Z,1.20
2022-09-06T00:23:00.081Z,1.40
2022-09-06T00:23:32.385Z,1.10
2022-09-06T00:24:07.440Z,0.93
2022-09-06T00:24:39.753Z,1.10
2022-09-06T00:25:12.129Z,1.40
2022-09-06T00:25:44.434Z,1.10
2022-09-06T00:26:19.587Z,1.00
2022-09-06T00:26:51.970Z,1.23
2022-09-06T00:27:24.321Z,1.10
2022-09-06T00:27:57.129Z,1.17
2022-09-06T00:28:32.103Z,1.20
2022-09-06T00:29:04.458Z,1.17
2022-09-06T00:29:36.781Z,1.00
2022-09-06T00:30:14.017Z,1.27
2022-09-06T00:30:46.435Z,1.10
2022-09-06T00:31:20.578Z,1.20
2022-09-06T00:31:53.018Z,1.30
2022-09-06T00:32:28.098Z,1.37
2022-09-06T00:33:00.427Z,1.17
2022-09-06T00:33:32.751Z,1.17
2022-09-06T00:34:07.654Z,1.20
2022-09-06T00:34:39.966Z,1.00
2022-09-06T00:35:12.262Z,1.10
2022-09-06T00:35:47.405Z,1.17
2022-09-06T00:36:23.282Z,1.17
2022-09-06T00:36:55.617Z,1.03
2022-09-06T00:37:30.545Z,1.10
2022-09-06T00:38:05.478Z,1.07
2022-09-06T00:38:38.507Z,1.20
2022-09-06T00:39:10.842Z,1.40
2022-09-06T00:39:45.948Z,1.30
2022-09-06T00:40:18.830Z,1.30
2022-09-06T00:40:51.146Z,1.30
2022-09-06T00:41:26.121Z,1.30
2022-09-06T00:41:58.434Z,1.33
2022-09-06T00:42:30.814Z,1.30
2022-09-06T00:43:05.742Z,1.20
2022-09-06T00:43:38.761Z,1.40
2022-09-06T00:44:11.245Z,1.33
2022-09-06T00:44:46.149Z,1.20
2022-09-06T00:45:18.797Z,1.10
2022-09-06T00:45:51.436Z,1.40
2022-09-06T00:46:29.030Z,1.40
2022-09-06T00:47:01.464Z,1.20
2022-09-06T00:47:35.259Z,1.20
2022-09-06T00:48:10.213Z,1.50
2022-09-06T00:48:43.477Z,1.40
2022-09-06T00:49:24.336Z,1.20
2022-09-06T00:50:00.480Z,1.13
2022-09-06T00:50:33.253Z,1.20
2022-09-06T00:51:09.822Z,1.30
2022-09-06T00:51:45.414Z,0.90
2022-09-06T00:52:19.713Z,1.43
2022-09-06T00:52:54.712Z,1.30
2022-09-06T00:53:30.354Z,1.30
2022-09-06T00:54:04.094Z,1.40
2022-09-06T00:54:36.608Z,1.13
2022-09-06T00:55:12.818Z,1.50
2022-09-06T00:55:45.262Z,1.57
2022-09-06T00:56:17.661Z,1.20
2022-09-06T00:56:52.924Z,1.10
2022-09-06T00:57:27.348Z,1.13
2022-09-06T00:57:59.789Z,1.20
2022-09-06T00:58:34.754Z,1.60
2022-09-06T00:59:07.130Z,1.30
2022-09-06T00:59:40.405Z,1.20
2022-09-06T01:00:13.950Z,1.50
2022-09-06T01:00:48.996Z,1.57
2022-09-06T01:01:21.371Z,1.53
2022-09-06T01:01:54.053Z,1.13
2022-09-06T01:02:29.354Z,1.30
2022-09-06T01:03:01.999Z,1.50
2022-09-06T01:03:34.697Z,1.30
2022-09-06T01:04:09.754Z,1.33
2022-09-06T01:04:43.745Z,1.30
2022-09-06T01:05:16.695Z,1.60
2022-09-06T01:05:57.086Z,1.20
2022-09-06T01:06:38.014Z,1.50
2022-09-06T01:07:17.182Z,1.20
2022-09-06T01:08:17.964Z,1.50
2022-09-06T01:09:00.161Z,1.40
2022-09-06T01:09:47.222Z,1.30
2022-09-06T01:10:50.016Z,1.57
2022-09-06T01:11:36.270Z,1.20
2022-09-06T01:12:22.905Z,1.10
2022-09-06T01:13:01.696Z,1.40
2022-09-06T01:13:43.226Z,1.43
2022-09-06T01:14:24.846Z,1.50
2022-09-06T01:15:09.821Z,1.47
2022-09-06T01:15:52.362Z,1.70
2022-09-06T01:16:31.796Z,1.33
2022-09-06T01:17:10.733Z,1.30
2022-09-06T01:17:53.741Z,0.80
2022-09-06T01:18:39.309Z,1.33
2022-09-06T01:19:35.799Z,1.20
2022-09-06T01:20:41.504Z,1.60
2022-09-06T01:21:29.179Z,1.30
2022-09-06T01:22:11.675Z,1.10
2022-09-06T01:23:13.249Z,1.37
2022-09-06T01:24:21.289Z,1.40
2022-09-06T01:25:05.298Z,1.20
2022-09-06T01:25:43.649Z,1.43
2022-09-06T01:27:03.017Z,1.30
2022-09-06T01:28:07.607Z,1.30
2022-09-06T01:28:44.858Z,1.00
2022-09-06T01:29:24.199Z,1.80
2022-09-06T01:30:01.256Z,1.13
2022-09-06T01:30:37.366Z,1.53
2022-09-06T01:31:20.494Z,1.37
2022-09-06T01:31:56.537Z,1.67
2022-09-06T01:32:35.476Z,1.70
2022-09-06T01:33:14.491Z,1.13
2022-09-06T01:33:51.861Z,1.87
2022-09-06T01:34:32.174Z,1.30
2022-09-06T01:35:10.285Z,1.50
2022-09-06T01:35:46.257Z,1.80
2022-09-06T01:36:23.773Z,1.40
2022-09-06T01:37:13.178Z,1.63
2022-09-06T01:37:45.734Z,1.43
2022-09-06T01:38:20.789Z,1.33
2022-09-06T01:38:53.168Z,1.10
2022-09-06T01:39:30.322Z,1.60
2022-09-06T01:40:05.703Z,1.27
2022-09-06T01:40:38.061Z,1.30
2022-09-06T01:41:11.109Z,1.40
2022-09-06T01:41:46.022Z,1.37
2022-09-06T01:42:20.642Z,1.57
2022-09-06T01:42:56.155Z,1.30
2022-09-06T01:43:32.868Z,1.30
2022-09-06T01:44:05.173Z,1.57
2022-09-06T01:44:41.129Z,1.40
2022-09-06T01:45:16.398Z,1.33
2022-09-06T01:45:53.356Z,1.40
2022-09-06T01:46:33.372Z,1.40
2022-09-06T01:47:13.577Z,1.33
2022-09-06T01:47:58.741Z,1.10
2022-09-06T01:48:41.866Z,1.33
2022-09-06T01:49:26.719Z,1.43
2022-09-06T01:50:13.062Z,1.33
2022-09-06T01:51:00.483Z,1.33
2022-09-06T01:51:38.077Z,1.07
2022-09-06T01:52:15.069Z,1.00
2022-09-06T01:52:56.665Z,1.10
2022-09-06T01:53:49.078Z,1.33
2022-09-06T01:54:34.313Z,1.40
2022-09-06T01:55:13.858Z,1.07
2022-09-06T01:55:53.945Z,1.20
2022-09-06T01:56:35.639Z,1.30
2022-09-06T01:57:16.825Z,1.50
2022-09-06T01:57:58.472Z,1.47
2022-09-06T01:58:46.234Z,1.40
2022-09-06T01:59:50.121Z,1.40
2022-09-06T02:00:25.447Z,1.47
2022-09-06T02:01:00.681Z,1.80
2022-09-06T02:01:37.097Z,1.30
2022-09-06T02:02:16.405Z,1.10
2022-09-06T02:02:59.954Z,1.57
2022-09-06T02:03:40.706Z,1.30
2022-09-06T02:04:17.537Z,1.10
2022-09-06T02:04:51.993Z,1.53
2022-09-06T02:05:30.985Z,1.10
2022-09-06T02:06:05.681Z,1.40
2022-09-06T02:06:41.985Z,1.50
2022-09-06T02:07:21.345Z,1.60
2022-09-06T02:07:56.522Z,1.60
2022-09-06T02:08:34.846Z,1.30
2022-09-06T02:09:09.538Z,1.50
2022-09-06T02:09:43.226Z,1.30
2022-09-06T02:10:21.662Z,1.40
2022-09-06T02:10:58.494Z,1.27
2022-09-06T02:11:34.501Z,1.40
2022-09-06T02:12:12.425Z,1.30
2022-09-06T02:12:46.406Z,1.50
2022-09-06T02:13:19.389Z,1.30
2022-09-06T02:13:59.021Z,1.40
2022-09-06T02:14:34.048Z,1.20
2022-09-06T02:15:11.652Z,1.33
2022-09-06T02:15:47.938Z,1.20
2022-09-06T02:16:22.403Z,1.40
2022-09-06T02:16:58.086Z,1.20
2022-09-06T02:17:32.802Z,1.33
2022-09-06T02:18:09.470Z,1.30
2022-09-06T02:18:47.672Z,1.10
2022-09-06T02:19:25.030Z,1.47
2022-09-06T02:19:59.869Z,1.33
2022-09-06T02:20:37.621Z,1.13
2022-09-06T02:21:11.725Z,1.27
2022-09-06T02:21:46.669Z,1.20
2022-09-06T02:22:23.712Z,1.43
2022-09-06T02:22:57.673Z,1.60
2022-09-06T02:23:34.289Z,1.37
2022-09-06T02:24:12.261Z,1.20
2022-09-06T02:24:45.678Z,1.20
2022-09-06T02:25:22.775Z,1.40
2022-09-06T02:26:00.601Z,1.07
2022-09-06T02:26:35.967Z,1.60
2022-09-06T02:27:08.830Z,1.10
2022-09-06T02:27:43.740Z,1.17
2022-09-06T02:28:16.799Z,0.90
2022-09-06T02:28:49.309Z,1.20
2022-09-06T02:29:27.553Z,1.50
2022-09-06T02:30:03.017Z,1.10
2022-09-06T02:30:37.421Z,1.40
2022-09-06T02:31:16.202Z,1.07
2022-09-06T02:31:51.372Z,1.47
2022-09-06T02:32:25.274Z,1.30
2022-09-06T02:33:01.545Z,1.13
2022-09-06T02:33:34.065Z,1.27
2022-09-06T02:34:07.058Z,1.20
2022-09-06T02:34:43.335Z,1.20
2022-09-06T02:35:16.912Z,1.10
2022-09-06T02:35:50.609Z,1.17
2022-09-06T02:36:25.800Z,1.27
2022-09-06T02:36:58.132Z,1.40
2022-09-06T02:37:30.456Z,0.93
2022-09-06T02:38:05.381Z,1.03
2022-09-06T02:38:40.273Z,1.10
2022-09-06T02:39:13.512Z,1.43
2022-09-06T02:39:48.474Z,0.90
2022-09-06T02:40:21.062Z,1.40
2022-09-06T02:40:54.518Z,1.40
2022-09-06T02:41:27.477Z,1.10
2022-09-06T02:42:02.901Z,1.60
2022-09-06T02:42:35.663Z,1.10
2022-09-06T02:43:08.714Z,0.90
2022-09-06T02:43:44.684Z,0.93
2022-09-06T02:44:17.039Z,0.90
2022-09-06T02:44:52.046Z,1.03
2022-09-06T02:45:26.969Z,1.23
2022-09-06T02:45:59.475Z,1.20
2022-09-06T02:46:31.854Z,1.03
2022-09-06T02:47:04.637Z,0.90
2022-09-06T02:47:39.554Z,0.80
2022-09-06T02:48:11.857Z,0.77
2022-09-06T02:48:44.156Z,0.90
2022-09-06T02:49:19.069Z,1.07
2022-09-06T02:49:51.366Z,1.07
2022-09-06T02:50:23.673Z,1.00
2022-09-06T02:50:58.582Z,1.10
2022-09-06T02:51:31.108Z,1.17
2022-09-06T02:52:03.813Z,1.00
2022-09-06T02:52:38.722Z,1.10
2022-09-06T02:53:13.378Z,1.10
2022-09-06T02:53:46.298Z,0.90
2022-09-06T02:54:21.206Z,1.10
2022-09-06T02:54:53.538Z,1.27
2022-09-06T02:55:25.831Z,0.77
2022-09-06T02:55:58.398Z,1.00
2022-09-06T02:56:33.934Z,1.10
2022-09-06T02:57:06.570Z,1.13
2022-09-06T02:57:38.886Z,1.00
2022-09-06T02:58:14.771Z,1.30
2022-09-06T02:58:47.234Z,0.90
2022-09-06T02:59:19.621Z,1.00
2022-09-06T02:59:57.146Z,1.00
2022-09-06T03:00:30.042Z,1.13
2022-09-06T03:01:02.401Z,0.90
2022-09-06T03:01:37.539Z,0.90
2022-09-06T03:02:09.921Z,1.10
2022-09-06T03:02:42.303Z,1.10
2022-09-06T03:03:17.249Z,1.10
2022-09-06T03:03:49.570Z,0.83
2022-09-06T03:04:21.917Z,1.10
2022-09-06T03:04:56.811Z,1.10
2022-09-06T03:05:29.230Z,1.20
2022-09-06T03:06:01.582Z,1.00
2022-09-06T03:06:36.517Z,0.90
2022-09-06T03:07:08.874Z,1.00
2022-09-06T03:07:41.201Z,1.20
2022-09-06T03:08:16.146Z,1.00
2022-09-06T03:08:48.702Z,0.90
2022-09-06T03:09:23.606Z,0.97
2022-09-06T03:09:57.090Z,0.80
2022-09-06T03:10:29.497Z,1.10
2022-09-06T03:11:04.496Z,1.17
2022-09-06T03:11:36.817Z,1.10
2022-09-06T03:12:09.193Z,1.03
2022-09-06T03:12:45.248Z,1.20
2022-09-06T03:13:17.661Z,1.00
2022-09-06T03:13:51.198Z,1.17
2022-09-06T03:14:26.104Z,1.10
2022-09-06T03:15:01.013Z,1.17
2022-09-06T03:15:33.318Z,1.33
2022-09-06T03:16:08.220Z,0.70
2022-09-06T03:16:40.571Z,1.10
2022-09-06T03:17:12.957Z,1.00
2022-09-06T03:17:47.889Z,1.00
2022-09-06T03:18:20.283Z,1.17
2022-09-06T03:18:55.206Z,0.90
2022-09-06T03:19:27.511Z,1.07
2022-09-06T03:19:59.818Z,0.90
2022-09-06T03:20:37.068Z,1.03
2022-09-06T03:21:10.058Z,1.40
2022-09-06T03:21:42.381Z,0.77
2022-09-06T03:22:17.304Z,0.93
2022-09-06T03:22:49.596Z,0.93
2022-09-06T03:23:26.497Z,1.00
2022-09-06T03:23:59.464Z,1.00
2022-09-06T03:24:31.776Z,1.27
2022-09-06T03:25:07.196Z,1.20
2022-09-06T03:25:39.488Z,1.10
2022-09-06T03:26:12.021Z,1.10
2022-09-06T03:26:47.048Z,1.47
2022-09-06T03:27:19.402Z,1.10
2022-09-06T03:27:51.768Z,0.93
2022-09-06T03:28:27.038Z,1.10
2022-09-06T03:28:59.474Z,1.00
2022-09-06T03:29:31.776Z,1.13
2022-09-06T03:30:10.737Z,1.20
2022-09-06T03:30:45.415Z,1.00
2022-09-06T03:31:17.887Z,1.00
2022-09-06T03:31:50.217Z,1.10
2022-09-06T03:32:25.170Z,1.00
2022-09-06T03:33:02.436Z,1.40
2022-09-06T03:33:35.177Z,1.17
2022-09-06T03:34:11.332Z,1.10
2022-09-06T03:34:43.739Z,1.13
2022-09-06T03:35:16.210Z,1.10
2022-09-06T03:35:52.159Z,1.33
2022-09-06T03:36:27.062Z,1.50
2022-09-06T03:36:59.371Z,1.13
2022-09-06T03:37:31.710Z,1.30
2022-09-06T03:38:06.621Z,1.30
2022-09-06T03:38:38.933Z,1.13
2022-09-06T03:39:11.240Z,1.40
2022-09-06T03:39:46.198Z,1.07
2022-09-06T03:40:18.788Z,1.50
2022-09-06T03:40:54.094Z,1.20
2022-09-06T03:41:26.389Z,1.30
2022-09-06T03:41:58.690Z,1.20
2022-09-06T03:42:31.009Z,1.03
2022-09-06T03:43:05.922Z,1.10
2022-09-06T03:43:38.251Z,1.30
2022-09-06T03:44:10.546Z,1.03
2022-09-06T03:44:45.953Z,1.30
2022-09-06T03:45:20.960Z,1.37
2022-09-06T03:45:58.393Z,1.30
2022-09-06T03:46:31.015Z,1.40
2022-09-06T03:47:03.863Z,1.33
2022-09-06T03:47:38.806Z,1.17
2022-09-06T03:48:11.234Z,1.20
2022-09-06T03:48:43.542Z,1.43
2022-09-06T03:49:18.437Z,1.43
2022-09-06T03:49:51.629Z,1.40
2022-09-06T03:50:23.956Z,1.30
2022-09-06T03:51:00.660Z,1.30
2022-09-06T03:51:32.986Z,1.10
2022-09-06T03:52:05.671Z,1.33
2022-09-06T03:52:40.759Z,1.20
2022-09-06T03:53:13.244Z,1.40
2022-09-06T03:53:45.740Z,1.33
2022-09-06T03:54:20.664Z,1.40
2022-09-06T03:54:52.976Z,1.20
2022-09-06T03:55:25.286Z,1.40
2022-09-06T03:56:01.114Z,1.60
2022-09-06T03:56:33.449Z,1.30
2022-09-06T03:57:05.847Z,1.17
2022-09-06T03:57:40.794Z,1.23
2022-09-06T03:58:13.285Z,1.03
2022-09-06T03:58:45.718Z,1.00
2022-09-06T03:59:20.646Z,1.10
2022-09-06T03:59:53.100Z,0.90
2022-09-06T04:00:28.129Z,1.27
2022-09-06T04:01:07.953Z,1.50
2022-09-06T04:01:40.355Z,1.23
2022-09-06T04:02:12.952Z,1.50
2022-09-06T04:02:47.933Z,1.10
2022-09-06T04:03:20.357Z,1.20
2022-09-06T04:03:52.880Z,1.07
2022-09-06T04:04:27.794Z,1.20
2022-09-06T04:05:00.097Z,0.80
2022-09-06T04:05:32.393Z,1.10
2022-09-06T04:06:08.388Z,1.23
2022-09-06T04:06:40.705Z,1.00
2022-09-06T04:07:13.101Z,1.17
2022-09-06T04:07:48.030Z,1.00
2022-09-06T04:08:20.321Z,1.10
2022-09-06T04:08:52.631Z,0.80
2022-09-06T04:09:27.577Z,1.03
2022-09-06T04:09:59.884Z,1.07
2022-09-06T04:10:32.633Z,1.23
2022-09-06T04:11:08.301Z,0.97
2022-09-06T04:11:43.798Z,1.20
2022-09-06T04:12:20.069Z,1.27
2022-09-06T04:12:52.393Z,1.23
2022-09-06T04:13:25.162Z,1.17
2022-09-06T04:14:00.089Z,1.10
2022-09-06T04:14:32.428Z,0.90
2022-09-06T04:15:05.836Z,1.00
2022-09-06T04:15:43.450Z,0.90
2022-09-06T04:16:17.732Z,0.90
2022-09-06T04:16:50.355Z,1.00
2022-09-06T04:17:25.327Z,1.10
2022-09-06T04:17:58.566Z,1.17
2022-09-06T04:18:31.472Z,1.27
2022-09-06T04:19:06.405Z,0.90
2022-09-06T04:19:38.707Z,0.80
2022-09-06T04:20:11.156Z,1.00
2022-09-06T04:20:43.536Z,1.00
2022-09-06T04:21:18.452Z,1.10
2022-09-06T04:21:50.753Z,1.00
2022-09-06T04:22:23.114Z,0.90
2022-09-06T04:22:58.034Z,1.10
2022-09-06T04:23:30.374Z,0.90
2022-09-06T04:24:03.185Z,1.10
2022-09-06T04:24:38.084Z,1.20
2022-09-06T04:25:11.062Z,1.27
2022-09-06T04:25:46.816Z,1.37
2022-09-06T04:26:21.766Z,1.30
2022-09-06T04:26:54.070Z,1.17
2022-09-06T04:27:26.370Z,1.00
2022-09-06T04:27:58.706Z,1.37
2022-09-06T04:28:33.868Z,1.20
2022-09-06T04:29:06.346Z,1.20
2022-09-06T04:29:38.652Z,1.43
2022-09-06T04:30:14.114Z,1.40
2022-09-06T04:30:52.374Z,1.60
2022-09-06T04:31:24.723Z,1.30
2022-09-06T04:31:59.718Z,1.17
2022-09-06T04:32:32.804Z,1.23
2022-09-06T04:33:05.182Z,0.90
2022-09-06T04:33:41.023Z,1.40
2022-09-06T04:34:13.329Z,0.90
2022-09-06T04:34:45.630Z,1.10
2022-09-06T04:35:20.601Z,1.03
2022-09-06T04:35:53.541Z,1.27
2022-09-06T04:36:25.845Z,1.33
2022-09-06T04:37:00.754Z,1.50
2022-09-06T04:37:33.056Z,0.90
2022-09-06T04:38:06.086Z,1.40
2022-09-06T04:38:42.108Z,1.03
2022-09-06T04:39:14.422Z,1.00
2022-09-06T04:39:46.831Z,1.10
2022-09-06T04:40:21.754Z,1.00
2022-09-06T04:40:55.622Z,1.10
2022-09-06T04:41:30.644Z,1.10
2022-09-06T04:42:02.970Z,1.23
2022-09-06T04:42:35.594Z,1.10
2022-09-06T04:43:10.543Z,1.00
2022-09-06T04:43:43.119Z,1.00
2022-09-06T04:44:15.511Z,1.20
2022-09-06T04:44:50.414Z,1.20
2022-09-06T04:45:22.768Z,1.20
2022-09-06T04:46:03.464Z,0.90
2022-09-06T04:46:38.427Z,1.10
2022-09-06T04:47:14.959Z,1.17
2022-09-06T04:47:47.457Z,0.93
2022-09-06T04:48:22.639Z,1.10
2022-09-06T04:48:55.697Z,1.33
2022-09-06T04:49:28.023Z,1.10
2022-09-06T04:50:02.952Z,1.00
2022-09-06T04:50:36.453Z,1.20
2022-09-06T04:51:11.301Z,1.13
2022-09-06T04:51:46.210Z,1.20
2022-09-06T04:52:18.657Z,1.10
2022-09-06T04:52:50.957Z,1.07
2022-09-06T04:53:25.893Z,1.07
2022-09-06T04:53:58.220Z,1.00
2022-09-06T04:54:30.547Z,0.90
2022-09-06T04:55:05.701Z,1.30
2022-09-06T04:55:38.406Z,1.10
2022-09-06T04:56:13.509Z,1.10
2022-09-06T04:56:45.822Z,0.87
2022-09-06T04:57:20.736Z,0.80
2022-09-06T04:57:53.909Z,0.80
2022-09-06T04:58:26.445Z,1.00
2022-09-06T04:59:01.566Z,1.13
2022-09-06T04:59:33.878Z,1.10
2022-09-06T05:00:08.178Z,0.80
2022-09-06T05:00:41.957Z,1.00
2022-09-06T05:01:20.663Z,1.03
2022-09-06T05:01:53.101Z,1.20
2022-09-06T05:02:25.498Z,1.20
2022-09-06T05:03:00.554Z,1.00
2022-09-06T05:03:32.941Z,0.80
2022-09-06T05:04:05.238Z,1.00
2022-09-06T05:04:40.138Z,1.00
2022-09-06T05:05:12.441Z,1.10
2022-09-06T05:05:44.741Z,1.00
2022-09-06T05:06:23.588Z,0.90
2022-09-06T05:07:01.164Z,0.83
2022-09-06T05:07:33.474Z,1.10
2022-09-06T05:08:08.389Z,1.20
2022-09-06T05:08:41.821Z,1.00
2022-09-06T05:09:14.958Z,1.00
2022-09-06T05:09:49.856Z,1.00
2022-09-06T05:10:23.230Z,0.97
2022-09-06T05:10:55.534Z,1.00
2022-09-06T05:11:30.437Z,0.90
2022-09-06T05:12:03.367Z,1.17
2022-09-06T05:12:35.670Z,1.20
2022-09-06T05:13:10.613Z,1.17
2022-09-06T05:13:43.073Z,1.10
2022-09-06T05:14:15.365Z,1.10
2022-09-06T05:14:47.681Z,1.30
2022-09-06T05:15:23.442Z,1.43
2022-09-06T05:15:55.770Z,1.23
2022-09-06T05:16:33.352Z,1.30
2022-09-06T05:17:05.773Z,1.60
2022-09-06T05:17:38.067Z,1.37
2022-09-06T05:18:25.812Z,1.33
2022-09-06T05:18:58.263Z,1.37
2022-09-06T05:19:33.181Z,1.00
2022-09-06T05:20:06.349Z,1.27
2022-09-06T05:20:38.648Z,1.67
2022-09-06T05:21:10.968Z,1.47
2022-09-06T05:21:45.889Z,1.63
2022-09-06T05:22:18.315Z,1.20
2022-09-06T05:22:54.038Z,1.10
2022-09-06T05:23:29.353Z,1.40
2022-09-06T05:24:01.868Z,1.00
2022-09-06T05:24:34.177Z,1.30
2022-09-06T05:25:09.899Z,1.57
2022-09-06T05:25:42.226Z,1.23
2022-09-06T05:26:14.553Z,1.10
2022-09-06T05:26:49.468Z,1.30
2022-09-06T05:27:21.765Z,1.40
2022-09-06T05:27:54.087Z,1.20
2022-09-06T05:28:29.119Z,1.20
2022-09-06T05:29:01.502Z,1.33
2022-09-06T05:29:33.966Z,1.03
2022-09-06T05:30:10.017Z,1.13
2022-09-06T05:30:42.329Z,1.30
2022-09-06T05:31:29.827Z,1.20
2022-09-06T05:32:05.209Z,1.20
2022-09-06T05:32:37.558Z,1.20
2022-09-06T05:33:12.989Z,1.27
2022-09-06T05:33:45.313Z,1.20
2022-09-06T05:34:17.906Z,1.13
2022-09-06T05:34:53.407Z,1.20
2022-09-06T05:35:25.717Z,0.90
2022-09-06T05:35:58.033Z,1.20
2022-09-06T05:36:33.622Z,1.30
2022-09-06T05:37:05.933Z,1.10
2022-09-06T05:37:38.234Z,1.10
2022-09-06T05:38:13.141Z,1.00
2022-09-06T05:38:45.478Z,0.90
2022-09-06T05:39:21.238Z,1.07
2022-09-06T05:39:56.247Z,1.03
2022-09-06T05:40:28.595Z,1.20
2022-09-06T05:41:00.884Z,0.80
2022-09-06T05:41:35.790Z,1.00
2022-09-06T05:42:08.253Z,1.10
2022-09-06T05:42:41.208Z,1.07
2022-09-06T05:43:16.114Z,1.00
2022-09-06T05:43:48.440Z,1.03
2022-09-06T05:44:20.765Z,0.93
2022-09-06T05:44:55.728Z,1.10
2022-09-06T05:45:28.080Z,1.17
2022-09-06T05:46:00.518Z,1.10
2022-09-06T05:46:35.488Z,1.10
2022-09-06T05:47:10.429Z,1.30
2022-09-06T05:47:45.331Z,1.20
2022-09-06T05:48:17.670Z,0.90
2022-09-06T05:48:54.502Z,1.30
2022-09-06T05:49:29.567Z,1.00
2022-09-06T05:50:02.201Z,1.03
2022-09-06T05:50:34.789Z,1.00
2022-09-06T05:51:12.600Z,1.10
2022-09-06T05:51:44.974Z,0.90
2022-09-06T05:52:20.190Z,1.17
2022-09-06T05:52:54.334Z,1.10
2022-09-06T05:53:26.644Z,1.10
2022-09-06T05:54:01.927Z,0.90
2022-09-06T05:54:34.266Z,0.90
2022-09-06T05:55:08.030Z,0.90
2022-09-06T05:55:43.274Z,1.10
2022-09-06T05:56:15.848Z,1.00
2022-09-06T05:56:48.169Z,1.00
2022-09-06T05:57:23.090Z,0.90
2022-09-06T05:57:55.409Z,0.90
2022-09-06T05:58:27.765Z,0.70
2022-09-06T05:59:02.941Z,1.10
2022-09-06T05:59:35.407Z,0.70
2022-09-06T06:00:12.159Z,1.00
2022-09-06T06:00:48.051Z,0.97
2022-09-06T06:01:21.965Z,1.00
2022-09-06T06:01:57.428Z,1.00
2022-09-06T06:02:32.385Z,1.00
2022-09-06T06:03:04.694Z,1.00
2022-09-06T06:03:39.698Z,1.00
2022-09-06T06:04:12.031Z,0.93
2022-09-06T06:04:44.341Z,1.03
2022-09-06T06:05:19.649Z,0.90
2022-09-06T06:05:51.941Z,1.07
2022-09-06T06:06:25.669Z,1.10
2022-09-06T06:07:00.594Z,1.17
2022-09-06T06:07:32.893Z,1.00
2022-09-06T06:08:05.208Z,1.30
2022-09-06T06:08:40.195Z,1.27
2022-09-06T06:09:12.696Z,1.20
2022-09-06T06:09:45.569Z,0.97
2022-09-06T06:10:20.649Z,1.33
2022-09-06T06:10:52.946Z,1.67
2022-09-06T06:11:26.205Z,1.57
2022-09-06T06:12:01.109Z,2.13
2022-09-06T06:12:33.410Z,2.10
2022-09-06T06:13:05.739Z,1.83
2022-09-06T06:13:40.734Z,1.80
2022-09-06T06:14:13.093Z,1.90
2022-09-06T06:14:45.495Z,1.93
2022-09-06T06:15:20.457Z,1.90
2022-09-06T06:15:52.901Z,1.90
2022-09-06T06:16:25.593Z,2.23
2022-09-06T06:17:00.631Z,1.80
2022-09-06T06:17:35.565Z,2.03
2022-09-06T06:18:08.045Z,1.67
2022-09-06T06:18:47.671Z,1.80
2022-09-06T06:19:22.393Z,1.97
2022-09-06T06:19:58.426Z,1.90
2022-09-06T06:20:30.757Z,1.87
2022-09-06T06:21:10.328Z,1.50
2022-09-06T06:21:45.230Z,1.40
2022-09-06T06:22:17.633Z,1.70
2022-09-06T06:22:49.917Z,1.80
2022-09-06T06:23:25.666Z,1.50
2022-09-06T06:23:59.550Z,1.47
2022-09-06T06:24:34.602Z,1.90
2022-09-06T06:25:07.741Z,1.50
2022-09-06T06:25:40.046Z,1.73
2022-09-06T06:26:16.025Z,1.60
2022-09-06T06:26:48.563Z,1.67
2022-09-06T06:27:23.489Z,1.40
2022-09-06T06:27:55.808Z,1.33
2022-09-06T06:28:28.309Z,1.50
2022-09-06T06:29:05.814Z,1.40
2022-09-06T06:29:38.147Z,1.67
2022-09-06T06:30:18.200Z,1.37
2022-09-06T06:30:50.809Z,1.90
2022-09-06T06:31:24.096Z,2.03
2022-09-06T06:31:59.129Z,1.40
2022-09-06T06:32:31.474Z,1.53
2022-09-06T06:33:06.391Z,1.20
2022-09-06T06:33:41.377Z,1.30
2022-09-06T06:34:13.766Z,1.50
2022-09-06T06:34:48.709Z,1.43
2022-09-06T06:35:21.069Z,1.20
2022-09-06T06:36:00.458Z,1.03
2022-09-06T06:36:36.546Z,1.50
2022-09-06T06:37:08.849Z,1.33
2022-09-06T06:37:42.455Z,1.37
2022-09-06T06:38:17.429Z,1.20
2022-09-06T06:38:51.439Z,1.40
2022-09-06T06:39:26.385Z,1.30
2022-09-06T06:39:59.093Z,1.30
2022-09-06T06:40:31.413Z,1.33
2022-09-06T06:41:07.445Z,1.20
2022-09-06T06:41:39.764Z,1.30
2022-09-06T06:42:33.566Z,1.50
2022-09-06T06:43:06.013Z,2.00
2022-09-06T06:43:38.602Z,1.60
2022-09-06T06:44:13.513Z,1.80
2022-09-06T06:44:45.913Z,1.50
2022-09-06T06:45:18.808Z,1.43
2022-09-06T06:45:53.813Z,1.70
2022-09-06T06:46:28.096Z,1.80
2022-09-06T06:47:02.698Z,1.80
2022-09-06T06:47:37.655Z,1.80
2022-09-06T06:48:12.566Z,1.57
2022-09-06T06:48:45.817Z,1.60
2022-09-06T06:49:20.746Z,1.73
2022-09-06T06:49:53.050Z,1.43
2022-09-06T06:50:25.346Z,1.63
2022-09-06T06:51:00.246Z,1.20
2022-09-06T06:51:33.992Z,2.00
2022-09-06T06:52:08.990Z,1.60
2022-09-06T06:52:41.377Z,1.40
2022-09-06T06:53:13.786Z,1.60
2022-09-06T06:53:49.669Z,1.50
2022-09-06T06:54:22.010Z,1.80
2022-09-06T06:54:54.341Z,1.50
2022-09-06T06:55:29.233Z,1.20
2022-09-06T06:56:01.805Z,1.17
2022-09-06T06:56:38.151Z,1.30
2022-09-06T06:57:10.541Z,1.60
2022-09-06T06:57:43.174Z,1.30
2022-09-06T06:58:18.497Z,1.07
2022-09-06T06:58:53.173Z,1.50
2022-09-06T06:59:28.073Z,1.50
2022-09-06T07:00:00.422Z,1.63
2022-09-06T07:00:32.726Z,1.00
2022-09-06T07:01:08.097Z,1.30
2022-09-06T07:01:40.725Z,1.33
2022-09-06T07:02:17.437Z,1.50
2022-09-06T07:02:49.830Z,1.00
2022-09-06T07:03:24.805Z,1.43
2022-09-06T07:04:00.216Z,1.20
2022-09-06T07:04:32.538Z,1.40
2022-09-06T07:07:45.854Z,1.10
2022-09-06T07:08:20.866Z,1.60
2022-09-06T07:08:53.170Z,1.30
2022-09-06T07:10:35.802Z,1.20
2022-09-06T07:11:12.811Z,1.30
2022-09-06T07:11:45.326Z,0.90
2022-09-06T07:12:20.231Z,1.10
2022-09-06T07:12:52.586Z,1.37
2022-09-06T07:13:27.706Z,1.30
2022-09-06T07:14:00.110Z,1.10
2022-09-06T07:14:35.001Z,1.37
2022-09-06T07:15:08.511Z,1.13
2022-09-06T07:15:40.809Z,1.30
2022-09-06T07:16:17.449Z,1.30
2022-09-06T07:16:51.855Z,1.10
2022-09-06T07:17:24.152Z,1.00
2022-09-06T07:17:59.653Z,1.07
2022-09-06T07:18:34.659Z,1.00
2022-09-06T07:21:37.204Z,1.13
2022-09-06T07:22:13.782Z,1.10
2022-09-06T07:22:46.166Z,1.23
2022-09-06T07:24:14.646Z,1.10
2022-09-06T07:24:46.950Z,1.37
2022-09-06T07:25:21.576Z,1.10
2022-09-06T07:25:56.666Z,1.13
2022-09-06T07:26:30.662Z,1.10
2022-09-06T07:28:01.598Z,1.17
2022-09-06T07:28:38.929Z,1.03
2022-09-06T07:29:11.293Z,1.00
2022-09-06T07:29:43.625Z,1.10
2022-09-06T07:30:19.762Z,1.13
2022-09-06T07:30:54.583Z,1.33
2022-09-06T07:32:21.985Z,1.00
2022-09-06T07:32:56.971Z,1.07
2022-09-06T07:33:29.565Z,0.83
2022-09-06T07:34:07.999Z,1.20
2022-09-06T07:34:40.306Z,1.27
2022-09-06T07:35:14.150Z,0.80
2022-09-06T07:35:58.205Z,1.00
2022-09-06T07:36:31.025Z,1.20
2022-09-06T07:37:06.314Z,1.00
2022-09-06T07:37:38.617Z,1.00
2022-09-06T07:38:10.916Z,1.00
2022-09-06T07:38:46.186Z,1.13
2022-09-06T07:39:18.477Z,0.97
2022-09-06T07:39:51.303Z,0.80
2022-09-06T07:40:26.894Z,0.90
2022-09-06T07:41:00.426Z,0.93
2022-09-06T07:41:35.333Z,0.90
2022-09-06T07:42:08.159Z,0.80
2022-09-06T07:42:40.524Z,0.83
2022-09-06T07:43:15.426Z,0.90
2022-09-06T07:43:47.909Z,1.00
2022-09-06T07:44:23.070Z,0.90
2022-09-06T07:44:57.847Z,0.90
2022-09-06T07:45:30.293Z,1.00
2022-09-06T07:46:06.713Z,0.80
2022-09-06T07:46:39.082Z,1.03
2022-09-06T07:48:07.346Z,0.70
2022-09-06T07:48:40.931Z,0.73
2022-09-06T07:49:18.438Z,0.50
2022-09-06T07:50:49.338Z,0.80
2022-09-06T07:51:22.850Z,0.80
2022-09-06T07:51:55.206Z,0.70
2022-09-06T07:53:29.817Z,0.70
2022-09-06T07:54:29.495Z,0.97
2022-09-06T07:54:59.293Z,0.80
2022-09-06T07:55:34.207Z,0.73
2022-09-06T07:56:09.296Z,0.90
2022-09-06T07:56:44.252Z,0.90
2022-09-06T07:57:16.550Z,0.60